Time;durP1;ratioP1;P1;durP2;ratioP2;P2;SDS_P1;SDS_P2;PMS_P1;PMS_P2;Temp;Humidity;BMP_temperature;BMP_pressure;BME280_temperature;BME280_humidity;BME280_pressure;Samples;Min_cycle;Max_cycle;Signal;HPM_P1;HPM_P2
2022/09/28 00:02:19;;;;;;;6.10;2.25;;;;;;;7.10;100.00;99773.78;7377889;19;20022;-70
2022/09/28 00:04:49;;;;;;;5.88;2.03;;;;;;;7.05;100.00;99768.50;7375360;19;20011;-70
2022/09/28 00:07:19;;;;;;;4.82;2.40;;;;;;;7.01;100.00;99771.94;7378569;19;20011;-69
2022/09/28 00:09:50;;;;;;;5.70;2.40;;;;;;;6.96;100.00;99772.75;7378272;19;20627;-71
2022/09/28 00:12:23;;;;;;;5.78;2.40;;;;;;;6.92;100.00;99773.56;7374649;19;20022;-71
2022/09/28 00:14:54;;;;;;;4.88;2.97;;;;;;;6.88;100.00;99773.53;7374799;19;20085;-70
2022/09/28 00:17:25;;;;;;;5.95;2.35;;;;;;;6.83;100.00;99763.91;7376295;19;20441;-70
2022/09/28 00:20:03;;;;;;;5.93;2.33;;;;;;;6.79;100.00;99762.13;7373708;19;20048;-71
2022/09/28 00:22:33;;;;;;;5.53;2.50;;;;;;;6.77;100.00;99769.06;7375833;19;20541;-71
2022/09/28 00:25:03;;;;;;;5.20;2.60;;;;;;;6.74;100.00;99759.47;7372506;19;20077;-69
2022/09/28 00:27:35;;;;;;;6.57;2.85;;;;;;;6.71;100.00;99758.56;7374193;19;20644;-70
2022/09/28 00:30:07;;;;;;;5.45;2.70;;;;;;;6.69;100.00;99762.88;7375073;19;20014;-71
2022/09/28 00:32:36;;;;;;;3.65;2.30;;;;;;;6.66;100.00;99761.13;7375840;19;20011;-71
2022/09/28 00:35:07;;;;;;;8.82;2.90;;;;;;;6.65;100.00;99758.50;7378458;19;20014;-71
2022/09/28 00:37:36;;;;;;;5.35;2.85;;;;;;;6.61;100.00;99767.13;7375367;19;20361;-71
2022/09/28 00:40:07;;;;;;;8.40;3.30;;;;;;;6.59;100.00;99768.84;7374180;19;20017;-72
2022/09/28 00:42:41;;;;;;;7.82;3.38;;;;;;;6.56;100.00;99770.56;7378227;19;20017;-72
2022/09/28 00:45:12;;;;;;;5.22;2.97;;;;;;;6.56;100.00;99774.88;7375350;19;20093;-71
2022/09/28 00:47:50;;;;;;;7.35;3.40;;;;;;;6.56;100.00;99767.94;7376454;19;20058;-71
2022/09/28 00:50:26;;;;;;;10.40;3.80;;;;;;;6.58;100.00;99773.19;7371282;19;20015;-71
2022/09/28 00:53:02;;;;;;;7.80;3.40;;;;;;;6.59;100.00;99780.13;7372195;19;20018;-71
2022/09/28 00:55:39;;;;;;;13.70;4.68;;;;;;;6.63;100.00;99781.06;7375893;19;20498;-71
2022/09/28 00:58:15;;;;;;;11.38;5.05;;;;;;;6.65;100.00;99782.81;7372831;19;20095;-71
2022/09/28 01:00:46;;;;;;;12.60;6.50;;;;;;;6.71;100.00;99769.88;7375521;19;20025;-71
2022/09/28 01:03:18;;;;;;;15.00;7.10;;;;;;;6.77;100.00;99774.28;7384572;19;20353;-70
2022/09/28 01:05:50;;;;;;;11.98;5.90;;;;;;;6.82;100.00;99778.69;7385536;19;20014;-71
2022/09/28 01:08:22;;;;;;;12.05;5.03;;;;;;;6.85;100.00;99794.34;7381728;19;20127;-71
2022/09/28 01:10:52;;;;;;;10.98;5.18;;;;;;;6.93;100.00;99788.34;7380842;19;20039;-71
2022/09/28 01:13:26;;;;;;;11.27;5.20;;;;;;;7.00;100.00;99782.34;7384246;19;20017;-71
2022/09/28 01:16:08;;;;;;;;;;;;;;;7.00;100.00;99793.66;7381344;19;20031;-71
2022/09/28 01:18:49;;;;;;;11.18;4.82;;;;;;;7.07;100.00;99797.19;7376778;19;19907;-71
2022/09/28 01:21:21;;;;;;;9.73;5.75;;;;;;;7.16;100.00;99797.28;7380289;19;20029;-69
2022/09/28 01:24:20;;;;;;;14.70;6.07;;;;;;;7.17;100.00;99778.19;7380082;19;20011;-71
2022/09/28 01:26:58;;;;;;;8.93;4.28;;;;;;;7.16;100.00;99781.66;7382365;19;20015;-70
2022/09/28 01:29:40;;;;;;;8.80;3.60;;;;;;;7.14;100.00;99770.34;7380578;19;20017;-72
2022/09/28 01:32:19;;;;;;;8.00;3.80;;;;;;;7.15;100.00;99766.88;7379042;19;20011;-72
2022/09/28 01:34:58;;;;;;;6.60;2.92;;;;;;;7.15;100.00;99765.13;7380019;19;20125;-72
2022/09/28 01:37:33;;;;;;;4.00;2.20;;;;;;;7.19;100.00;99758.22;7378915;19;20006;-72
2022/09/28 01:40:06;;;;;;;8.02;2.17;;;;;;;7.19;100.00;99759.09;7382626;19;20025;-70
2022/09/28 01:42:46;;;;;;;3.40;2.15;;;;;;;7.20;100.00;99759.97;7380045;19;20037;-70
2022/09/28 01:45:24;;;;;;;2.13;1.40;;;;;;;7.21;100.00;99756.50;7381058;19;20063;-70
2022/09/28 01:47:59;;;;;;;1.70;1.13;;;;;;;7.21;100.00;99761.72;7383216;19;20028;-70
2022/09/28 01:50:31;;;;;;;2.47;1.17;;;;;;;7.21;100.00;99752.16;7378079;19;20404;-70
2022/09/28 01:53:08;;;;;;;1.65;1.30;;;;;;;7.22;100.00;99758.25;7373897;19;20014;-70
2022/09/28 01:55:43;;;;;;;2.35;1.52;;;;;;;7.20;100.00;99750.41;7383380;19;20069;-70
2022/09/28 01:58:20;;;;;;;1.35;1.08;;;;;;;7.18;100.00;99752.13;7380445;19;20387;-71
2022/09/28 02:00:57;;;;;;;2.15;1.27;;;;;;;7.19;100.00;99753.88;7380452;19;20018;-70
2022/09/28 02:03:36;;;;;;;2.30;1.08;;;;;;;7.18;100.00;99756.47;7380504;19;20011;-70
2022/09/28 02:06:13;;;;;;;1.27;1.00;;;;;;;7.19;100.00;99760.81;7382924;19;20015;-71
2022/09/28 02:08:50;;;;;;;4.13;1.02;;;;;;;7.20;100.00;99755.63;7383183;19;20006;-72
2022/09/28 02:11:22;;;;;;;3.60;1.30;;;;;;;7.23;100.00;99760.00;7380329;19;20011;-72
2022/09/28 02:14:00;;;;;;;2.72;1.30;;;;;;;7.24;100.00;99761.75;7378071;19;20426;-72
2022/09/28 02:16:36;;;;;;;1.42;1.13;;;;;;;7.27;100.00;99756.56;7383126;19;20011;-72
2022/09/28 02:19:08;;;;;;;1.98;1.30;;;;;;;7.29;100.00;99752.19;7377545;19;20030;-72
2022/09/28 02:21:44;;;;;;;2.75;1.20;;;;;;;7.32;100.00;99748.75;7382536;19;20373;-72
2022/09/28 02:24:18;;;;;;;1.13;1.13;;;;;;;7.33;100.00;99748.75;7384185;19;20011;-72
2022/09/28 02:26:52;;;;;;;1.95;1.17;;;;;;;7.36;100.00;99751.38;7383956;19;20090;-72
2022/09/28 02:29:25;;;;;;;1.98;1.50;;;;;;;7.37;100.00;99755.75;7381673;19;20014;-72
2022/09/28 02:31:55;;;;;;;1.88;1.35;;;;;;;7.39;100.00;99772.28;7382253;19;20086;-71
2022/09/28 02:34:25;;;;;;;3.92;1.42;;;;;;;7.41;100.00;99774.91;7379510;19;20006;-71
2022/09/28 02:36:55;;;;;;;1.52;1.42;;;;;;;7.45;100.00;99767.13;7381287;19;20107;-71
2022/09/28 02:39:25;;;;;;;3.92;1.67;;;;;;;7.46;100.00;99760.16;7378470;19;21730;-70
2022/09/28 02:42:09;;;;;;;3.60;1.90;;;;;;;7.45;100.00;99771.47;7379842;19;20018;-70
2022/09/28 02:45:05;;;;;;;1.42;1.25;;;;;;;7.44;100.00;99767.97;7379174;19;20035;-70
2022/09/28 02:47:56;;;;;;;1.98;1.10;;;;;;;7.44;100.00;99767.97;7381412;19;20392;-70
2022/09/28 02:50:38;;;;;;;2.35;1.25;;;;;;;7.44;100.00;99774.94;7376186;19;20007;-70
2022/09/28 02:53:43;;;;;;;5.00;1.52;;;;;;;7.42;100.00;99777.53;7377461;19;20025;-69
2022/09/28 02:56:31;;;;;;;2.13;1.35;;;;;;;7.41;100.00;99770.56;7377669;19;20011;-70
2022/09/28 02:59:15;;;;;;;1.90;1.23;;;;;;;7.42;100.00;99776.66;7377679;19;20021;-69
2022/09/28 03:01:58;;;;;;;2.75;1.38;;;;;;;7.41;100.00;99781.00;7376220;19;20046;-69
2022/09/28 03:04:35;;;;;;;1.13;1.00;;;;;;;7.42;100.00;99779.25;7381297;19;20029;-69
2022/09/28 03:07:17;;;;;;;3.20;1.40;;;;;;;7.42;100.00;99780.13;7377918;19;20006;-70
2022/09/28 03:09:55;;;;;;;1.50;1.27;;;;;;;7.44;100.00;99774.94;7376982;19;20574;-69
2022/09/28 03:12:29;;;;;;;3.35;1.30;;;;;;;7.46;100.00;99779.31;7378807;19;20011;-70
2022/09/28 03:15:12;;;;;;;8.13;1.75;;;;;;;7.43;100.00;99784.50;7375443;19;20039;-69
2022/09/28 03:17:46;;;;;;;3.05;1.50;;;;;;;7.40;100.00;99774.03;7379812;19;20014;-69
2022/09/28 03:20:17;;;;;;;2.85;1.40;;;;;;;7.39;100.00;99771.41;7375141;19;20034;-69
2022/09/28 03:22:47;;;;;;;4.32;1.60;;;;;;;7.36;100.00;99761.81;7378266;19;20011;-70
2022/09/28 03:25:41;;;;;;;1.98;1.35;;;;;;;7.31;100.00;99758.28;7376461;19;20471;-69
2022/09/28 03:28:14;;;;;;;5.22;1.85;;;;;;;7.27;100.00;99760.91;7379271;19;20474;-71
2022/09/28 03:30:46;;;;;;;5.22;1.88;;;;;;;7.22;100.00;99764.34;7377134;19;20094;-70
2022/09/28 03:33:18;;;;;;;3.35;1.73;;;;;;;7.18;100.00;99757.34;7382396;19;20567;-72
2022/09/28 03:35:49;;;;;;;7.97;1.98;;;;;;;7.14;100.00;99763.38;7384383;19;20018;-72
2022/09/28 03:38:20;;;;;;;5.07;1.77;;;;;;;7.10;100.00;99751.19;7378842;19;20017;-72
2022/09/28 03:40:54;;;;;;;5.43;1.90;;;;;;;7.09;100.00;99759.84;7379100;19;20010;-71
2022/09/28 03:43:25;;;;;;;3.25;2.05;;;;;;;7.08;100.00;99760.72;7375564;19;20017;-70
2022/09/28 03:45:56;;;;;;;4.13;2.15;;;;;;;7.06;100.00;99764.16;7379882;19;20094;-70
2022/09/28 03:48:30;;;;;;;3.85;1.80;;;;;;;7.04;100.00;99764.16;7378535;19;20487;-72
2022/09/28 03:51:03;;;;;;;3.60;1.88;;;;;;;7.07;100.00;99776.34;7378023;19;20581;-70
2022/09/28 03:53:34;;;;;;;4.70;2.20;;;;;;;7.06;100.00;99779.81;7374744;19;20597;-70
2022/09/28 03:56:05;;;;;;;6.28;2.30;;;;;;;7.09;100.00;99800.69;7378329;19;20027;-70
2022/09/28 03:58:35;;;;;;;4.05;1.88;;;;;;;7.14;100.00;99799.00;7376504;19;20098;-69
2022/09/28 04:01:06;;;;;;;2.65;1.85;;;;;;;7.18;100.00;99793.84;7379839;19;20021;-71
2022/09/28 04:03:43;;;;;;;2.85;1.85;;;;;;;7.24;100.00;99787.81;7375259;19;20124;-69
2022/09/28 04:06:13;;;;;;;3.55;1.65;;;;;;;7.28;100.00;99784.34;7378155;19;20017;-69
2022/09/28 04:08:43;;;;;;;1.70;1.40;;;;;;;7.30;100.00;99776.53;7379197;19;20446;-69
2022/09/28 04:11:13;;;;;;;5.55;1.77;;;;;;;7.32;100.00;99780.91;7380245;19;20481;-70
2022/09/28 04:13:43;;;;;;;3.50;1.58;;;;;;;7.33;100.00;99782.66;7377895;19;20030;-69
2022/09/28 04:16:13;;;;;;;1.90;1.40;;;;;;;7.34;100.00;99779.19;7379166;19;20014;-69
2022/09/28 04:18:45;;;;;;;3.22;1.60;;;;;;;7.36;100.00;99782.69;7377548;19;20028;-69
2022/09/28 04:21:22;;;;;;;3.88;1.55;;;;;;;7.36;100.00;99774.84;7376380;19;20011;-69
2022/09/28 04:23:51;;;;;;;2.72;1.58;;;;;;;7.39;100.00;99782.72;7378480;19;20092;-71
2022/09/28 04:26:23;;;;;;;2.40;1.67;;;;;;;7.43;100.00;99789.72;7374180;19;20021;-72
2022/09/28 04:31:40;;;;;;;1.98;1.60;;;;;;;7.48;100.00;99787.13;7378887;19;20038;-70
2022/09/28 04:34:16;;;;;;;2.10;1.67;;;;;;;7.50;100.00;99780.19;7377753;19;20018;-70
2022/09/28 04:36:46;;;;;;;3.17;1.38;;;;;;;7.51;100.00;99781.94;7372698;19;20010;-70
2022/09/28 04:39:17;;;;;;;3.50;1.60;;;;;;;7.50;100.00;99775.84;7374388;19;20021;-69
2022/09/28 04:41:50;;;;;;;2.03;1.30;;;;;;;7.53;100.00;99781.09;7375315;19;20003;-69
2022/09/28 04:44:19;;;;;;;4.20;1.70;;;;;;;7.52;100.00;99784.56;7374574;19;20023;-69
2022/09/28 04:46:49;;;;;;;4.63;1.85;;;;;;;7.53;100.00;99772.41;7376593;19;20021;-69
2022/09/28 04:49:23;;;;;;;2.40;1.52;;;;;;;7.53;100.00;99785.44;7374647;19;20015;-69
2022/09/28 04:51:55;;;;;;;;;;;;;;;7.52;100.00;99775.88;7374797;19;20074;-68
2022/09/28 04:54:29;;;;;;;2.58;1.50;;;;;;;7.52;100.00;99779.34;7375524;19;19915;-70
2022/09/28 04:57:00;;;;;;;3.22;1.48;;;;;;;7.50;100.00;99775.84;7376125;19;20117;-71
2022/09/28 04:59:37;;;;;;;4.30;2.08;;;;;;;7.51;100.00;99787.16;7375096;19;20042;-72
2022/09/28 05:02:08;;;;;;;6.05;2.95;;;;;;;7.47;100.00;99775.84;7372507;19;20187;-70
2022/09/28 05:04:41;;;;;;;3.78;2.20;;;;;;;7.50;100.00;99777.59;7374066;19;20018;-70
2022/09/28 05:07:14;;;;;;;;;;;;;;;7.47;100.00;99770.63;7375786;19;20011;-69
2022/09/28 05:09:44;;;;;;;7.25;2.20;;;;;;;7.45;100.00;99771.47;7375124;19;19978;-69
2022/09/28 05:12:17;;;;;;;7.03;2.00;;;;;;;7.40;100.00;99768.81;7379890;19;20010;-69
2022/09/28 05:14:47;;;;;;;3.03;1.52;;;;;;;7.39;100.00;99777.50;7377905;19;20018;-70
2022/09/28 05:17:17;;;;;;;6.65;2.00;;;;;;;7.38;100.00;99774.88;7377037;19;20017;-70
2022/09/28 05:19:50;;;;;;;5.18;2.25;;;;;;;7.36;100.00;99782.69;7377900;19;20007;-70
2022/09/28 05:22:22;;;;;;;4.37;2.17;;;;;;;7.36;100.00;99781.81;7376510;19;20015;-72
2022/09/28 05:24:53;;;;;;;2.90;1.77;;;;;;;7.37;100.00;99779.22;7377709;19;20014;-69
2022/09/28 05:27:23;;;;;;;5.75;2.40;;;;;;;7.37;100.00;99779.22;7377803;19;20029;-70
2022/09/28 05:29:52;;;;;;;5.13;2.45;;;;;;;7.37;100.00;99787.03;7377417;19;20038;-71
2022/09/28 05:32:22;;;;;;;3.97;2.05;;;;;;;7.37;100.00;99794.88;7377854;19;20464;-70
2022/09/28 05:34:59;;;;;;;6.93;2.90;;;;;;;7.38;100.00;99795.75;7373748;19;20014;-70
2022/09/28 05:37:30;;;;;;;6.20;2.40;;;;;;;7.39;100.00;99795.75;7374538;19;20048;-71
2022/09/28 05:39:59;;;;;;;4.70;2.33;;;;;;;7.43;100.00;99800.16;7372584;19;20025;-71
2022/09/28 05:42:29;;;;;;;5.47;2.78;;;;;;;7.45;100.00;99793.22;7374156;19;20007;-70
2022/09/28 05:44:59;;;;;;;5.97;2.90;;;;;;;7.50;100.00;99799.34;7375197;19;20039;-71
2022/09/28 05:47:29;;;;;;;4.25;2.15;;;;;;;7.53;100.00;99796.75;7379628;19;20078;-70
2022/09/28 05:50:02;;;;;;;5.97;2.42;;;;;;;7.59;100.00;99784.63;7373456;19;20034;-70
2022/09/28 05:52:31;;;;;;;4.88;2.10;;;;;;;7.59;100.00;99782.00;7382326;19;20595;-70
2022/09/28 05:55:02;;;;;;;6.05;2.53;;;;;;;7.57;100.00;99782.00;7381049;19;20049;-70
2022/09/28 05:57:32;;;;;;;5.00;2.35;;;;;;;7.58;100.00;99783.75;7377975;19;20015;-70
2022/09/28 06:00:06;;;;;;;7.40;3.63;;;;;;;7.60;100.00;99781.16;7383043;19;20110;-71
2022/09/28 06:02:37;;;;;;;4.95;2.47;;;;;;;7.63;100.00;99781.19;7384226;19;20022;-70
2022/09/28 06:05:10;;;;;;;5.30;2.40;;;;;;;7.63;100.00;99773.34;7383755;19;20027;-71
2022/09/28 06:07:41;;;;;;;;;;;;;;;7.66;100.00;99776.00;7385931;19;20070;-71
2022/09/28 06:10:11;;;;;;;3.60;1.80;;;;;;;7.66;100.00;99770.78;7384580;19;19925;-71
2022/09/28 06:12:42;;;;;;;6.70;2.88;;;;;;;7.64;100.00;99768.16;7385175;19;20007;-70
2022/09/28 06:15:12;;;;;;;4.07;1.90;;;;;;;7.63;100.00;99775.97;7384938;19;20021;-71
2022/09/28 06:17:44;;;;;;;5.70;2.55;;;;;;;7.61;100.00;99777.69;7383202;19;20074;-69
2022/09/28 06:20:17;;;;;;;4.82;2.15;;;;;;;7.59;100.00;99784.63;7380887;19;20014;-71
2022/09/28 06:22:47;;;;;;;7.57;2.53;;;;;;;7.57;100.00;99786.34;7382093;19;20007;-70
2022/09/28 06:25:20;;;;;;;6.00;2.30;;;;;;;7.57;100.00;99786.34;7381440;19;20011;-70
2022/09/28 06:28:01;;;;;;;4.97;2.53;;;;;;;7.57;100.00;99783.75;7381164;19;21311;-70
2022/09/28 06:30:37;;;;;;;7.88;2.78;;;;;;;7.57;100.00;99796.78;7382127;19;20011;-70
2022/09/28 06:33:12;;;;;;;4.43;2.42;;;;;;;7.60;100.00;99802.91;7377350;19;20075;-70
2022/09/28 06:35:47;;;;;;;4.40;2.17;;;;;;;7.62;100.00;99810.75;7382143;19;20034;-70
2022/09/28 06:38:19;;;;;;;4.43;2.53;;;;;;;7.63;100.00;99813.38;7378953;19;20025;-70
2022/09/28 06:40:50;;;;;;;7.00;2.83;;;;;;;7.66;100.00;99818.63;7379251;19;20014;-70
2022/09/28 06:43:20;;;;;;;5.78;3.03;;;;;;;7.69;100.00;99812.53;7380268;19;20037;-69
2022/09/28 06:45:53;;;;;;;9.35;3.70;;;;;;;7.73;100.00;99809.97;7381298;19;20018;-70
2022/09/28 06:48:23;;;;;;;5.25;3.00;;;;;;;7.77;100.00;99803.03;7374958;19;20018;-70
2022/09/28 06:50:58;;;;;;;8.73;3.20;;;;;;;7.83;100.00;99808.31;7375070;19;20494;-70
2022/09/28 06:53:28;;;;;;;5.55;2.75;;;;;;;7.91;100.00;99808.38;7376606;19;20018;-70
2022/09/28 06:55:59;;;;;;;6.03;2.97;;;;;;;8.02;100.00;99825.88;7377259;19;20448;-70
2022/09/28 06:58:30;;;;;;;4.82;2.40;;;;;;;8.15;100.00;99834.66;7374104;19;20070;-70
2022/09/28 07:01:00;;;;;;;8.55;4.03;;;;;;;8.29;100.00;99848.69;7377952;19;20492;-69
2022/09/28 07:03:30;;;;;;;8.57;3.47;;;;;;;8.37;100.00;99841.78;7377382;19;20014;-70
2022/09/28 07:06:03;;;;;;;8.98;3.42;;;;;;;8.46;100.00;99836.63;7375385;19;20066;-70
2022/09/28 07:08:33;;;;;;;10.98;3.58;;;;;;;8.52;100.00;99841.00;7373358;19;20018;-71
2022/09/28 07:11:07;;;;;;;6.40;2.80;;;;;;;8.56;100.00;99842.75;7375417;19;20074;-69
2022/09/28 07:13:39;;;;;;;6.35;3.40;;;;;;;8.62;100.00;99836.69;7380396;19;20413;-70
2022/09/28 07:16:25;;;;;;;12.18;3.83;;;;;;;8.65;100.00;99827.13;7375940;19;20473;-70
2022/09/28 07:19:09;;;;;;;8.43;3.00;;;;;;;8.66;100.00;99834.09;7377976;19;20078;-71
2022/09/28 07:21:42;;;;;;;8.30;3.50;;;;;;;8.69;100.00;99835.88;7374654;19;20015;-71
2022/09/28 07:24:13;;;;;;;5.65;3.00;;;;;;;8.74;100.00;99831.53;7378631;19;20023;-71
2022/09/28 07:26:44;;;;;;;10.20;3.97;;;;;;;8.80;100.00;99837.66;7374477;19;20088;-73
2022/09/28 07:29:15;;;;;;;8.80;4.00;;;;;;;8.87;100.00;99837.69;7375710;19;20044;-74
2022/09/28 07:31:45;;;;;;;9.90;3.58;;;;;;;8.92;100.00;99835.97;7375175;19;20014;-73
2022/09/28 07:34:17;;;;;;;8.55;3.78;;;;;;;8.99;100.00;99832.50;7374506;19;20015;-73
2022/09/28 07:36:57;;;;;;;7.10;3.60;;;;;;;9.05;100.00;99837.75;7377196;19;20047;-72
2022/09/28 07:39:27;;;;;;;8.43;3.45;;;;;;;9.11;100.00;99840.41;7371901;19;20014;-73
2022/09/28 07:41:54;;;;;;;6.78;3.15;;;;;;;9.14;100.00;99833.44;7372376;19;20015;-73
2022/09/28 07:44:30;;;;;;;;;;;;;;;9.22;100.00;99829.97;7374994;19;20010;-72
2022/09/28 07:47:01;;;;;;;6.63;2.90;;;;;;;9.26;100.00;99839.56;7374036;19;19907;-71
2022/09/28 07:49:31;;;;;;;8.18;3.53;;;;;;;9.31;100.00;99848.31;7377675;19;20011;-71
2022/09/28 07:52:07;;;;;;;7.68;3.38;;;;;;;9.39;100.00;99850.03;7373344;19;20007;-70
2022/09/28 07:54:38;;;;;;;10.77;3.47;;;;;;;9.47;100.00;99852.66;7374511;19;20018;-70
2022/09/28 07:57:10;;;;;;;7.70;3.47;;;;;;;9.58;100.00;99857.91;7373274;19;20022;-69
2022/09/28 07:59:40;;;;;;;8.52;3.60;;;;;;;9.67;100.00;99853.56;7376768;19;20281;-70
2022/09/28 08:02:12;;;;;;;6.40;3.70;;;;;;;9.96;100.00;99850.97;7378248;19;20006;-69
2022/09/28 08:04:42;;;;;;;10.48;4.57;;;;;;;10.19;100.00;99847.47;7380013;19;20014;-71
2022/09/28 08:07:15;;;;;;;8.85;3.72;;;;;;;10.47;100.00;99846.56;7378535;19;20270;-71
2022/09/28 08:09:51;;;;;;;7.55;3.92;;;;;;;10.51;100.00;99858.78;7376787;19;20408;-73
2022/09/28 08:12:21;;;;;;;7.07;3.35;;;;;;;10.56;100.00;99857.03;7376181;19;20018;-69
2022/09/28 08:14:54;;;;;;;6.03;3.20;;;;;;;10.60;100.00;99864.00;7374130;19;20014;-70
2022/09/28 08:17:24;;;;;;;7.60;2.97;;;;;;;10.61;100.00;99860.50;7374996;19;20011;-70
2022/09/28 08:22:38;;;;;;;5.90;2.55;;;;;;;10.76;100.00;99864.84;7378370;19;20031;-71
2022/09/28 08:25:10;;;;;;;3.90;1.88;;;;;;;10.95;100.00;99868.28;7372833;19;20088;-71
2022/09/28 08:27:39;;;;;;;5.15;2.10;;;;;;;10.98;100.00;99868.25;7373795;19;20115;-69
2022/09/28 08:30:10;;;;;;;2.40;1.60;;;;;;;10.82;100.00;99875.31;7374549;19;20018;-70
2022/09/28 08:32:41;;;;;;;1.98;1.38;;;;;;;10.88;100.00;99872.66;7376917;19;20010;-70
2022/09/28 08:35:11;;;;;;;2.50;1.58;;;;;;;10.79;100.00;99873.56;7377164;19;20017;-70
2022/09/28 08:37:43;;;;;;;2.97;1.60;;;;;;;11.00;100.00;99875.25;7379224;19;20014;-74
2022/09/28 08:40:25;;;;;;;3.00;1.70;;;;;;;11.37;100.00;99875.09;7371687;19;20074;-71
2022/09/28 08:42:58;;;;;;;5.40;1.90;;;;;;;11.45;100.00;99868.88;7371566;19;20014;-72
2022/09/28 08:45:32;;;;;;;2.55;1.63;;;;;;;11.36;100.00;99868.97;7372908;19;20006;-70
2022/09/28 08:50:53;;;;;;;2.25;1.55;;;;;;;11.45;100.00;99873.25;7369102;19;21703;-71
2022/09/28 08:53:38;;;;;;;3.65;1.67;;;;;;;11.37;100.00;99875.94;7370587;19;20090;-71
2022/09/28 08:56:16;;;;;;;2.80;1.70;;;;;;;11.53;100.00;99883.72;7373546;19;20026;-71
2022/09/28 08:58:51;;;;;;;2.72;1.50;;;;;;;11.58;100.00;99888.06;7373744;19;20497;-71
2022/09/28 09:01:21;;;;;;;2.00;1.60;;;;;;;11.76;100.00;99890.56;7372559;19;20011;-71
2022/09/28 09:03:51;;;;;;;1.70;1.50;;;;;;;12.03;100.00;99893.91;7374434;19;20031;-72
2022/09/28 09:06:32;;;;;;;3.92;2.00;;;;;;;12.38;100.00;99898.88;7373983;19;20010;-70
2022/09/28 09:09:12;;;;;;;2.78;1.48;;;;;;;12.51;100.00;99900.47;7375048;19;20007;-69
2022/09/28 09:11:57;;;;;;;4.65;1.63;;;;;;;12.82;100.00;99906.31;7376041;19;20014;-70
2022/09/28 09:14:55;;;;;;;2.15;1.23;;;;;;;12.80;100.00;99904.59;7370604;19;20034;-69
2022/09/28 09:17:32;;;;;;;2.92;1.30;;;;;;;13.10;100.00;99898.97;7368890;19;20013;-70
2022/09/28 09:20:12;;;;;;;5.28;1.52;;;;;;;13.20;100.00;99910.28;7367204;19;20022;-69
2022/09/28 09:22:47;;;;;;;2.10;1.10;;;;;;;13.03;100.00;99913.09;7377246;19;20011;-69
2022/09/28 09:25:27;;;;;;;3.30;1.40;;;;;;;13.46;100.00;99907.34;7387341;19;20015;-70
2022/09/28 09:28:34;;;;;;;3.45;1.50;;;;;;;13.59;100.00;99908.88;7381314;19;20107;-70
2022/09/28 09:31:13;;;;;;;1.88;1.15;;;;;;;13.38;100.00;99908.31;7377049;19;20033;-70
2022/09/28 09:34:21;;;;;;;2.37;1.37;;;;;;;13.53;100.00;99908.97;7384701;19;20062;-71
2022/09/28 09:37:15;;;;;;;4.88;1.48;;;;;;;13.69;100.00;99906.09;7384435;19;20022;-70
2022/09/28 09:40:03;;;;;;;1.30;1.05;;;;;;;13.82;100.00;99912.06;7382041;19;20011;-70
2022/09/28 09:42:50;;;;;;;3.53;2.20;;;;;;;13.73;100.00;99907.78;7381539;19;20096;-71
2022/09/28 09:45:51;;;;;;;1.83;1.17;;;;;;;13.73;100.00;99901.66;7368807;19;20014;-70
2022/09/28 09:48:28;;;;;;;1.90;1.20;;;;;;;13.46;100.00;99902.94;7363212;19;20014;-70
2022/09/28 09:51:02;;;;;;;1.45;1.15;;;;;;;13.84;100.00;99907.63;7375509;19;20014;-69
2022/09/28 09:53:39;;;;;;;3.13;1.27;;;;;;;13.99;100.00;99903.91;7374027;19;20609;-69
2022/09/28 09:56:15;;;;;;;2.53;1.50;;;;;;;14.40;100.00;99897.97;7378577;19;20090;-69
2022/09/28 09:58:51;;;;;;;2.15;1.10;;;;;;;14.46;100.00;99904.94;7375698;19;20011;-69
2022/09/28 10:01:25;;;;;;;2.75;1.65;;;;;;;14.47;100.00;99898.75;7376968;19;20014;-69
2022/09/28 10:03:57;;;;;;;2.67;1.40;;;;;;;14.69;100.00;99898.31;7376141;19;20305;-70
2022/09/28 10:06:33;;;;;;;4.60;1.55;;;;;;;14.79;100.00;99895.50;7378655;19;20010;-69
2022/09/28 10:09:06;;;;;;;3.92;1.30;;;;;;;14.97;100.00;99898.66;7378912;19;20018;-70
2022/09/28 10:11:39;;;;;;;3.38;1.35;;;;;;;15.07;100.00;99901.13;7378384;19;20018;-69
2022/09/28 10:14:15;;;;;;;2.95;1.33;;;;;;;15.08;100.00;99901.09;7375547;19;20014;-69
2022/09/28 10:16:47;;;;;;;1.85;1.27;;;;;;;15.05;100.00;99902.03;7377090;19;20017;-69
2022/09/28 10:19:20;;;;;;;1.75;1.13;;;;;;;15.18;100.00;99909.69;7374096;19;20343;-69
2022/09/28 10:21:51;;;;;;;1.95;1.55;;;;;;;15.41;100.00;99899.53;7379310;19;20010;-69
2022/09/28 10:24:29;;;;;;;1.63;1.00;;;;;;;15.78;100.00;99896.94;7374988;19;20451;-69
2022/09/28 10:27:06;;;;;;;4.13;1.00;;;;;;;15.49;100.00;99896.72;7375571;19;20011;-69
2022/09/28 10:29:47;;;;;;;1.05;0.85;;;;;;;15.47;100.00;99904.69;7371351;19;20010;-69
2022/09/28 10:32:23;;;;;;;1.17;0.65;;;;;;;14.87;100.00;99896.22;7375300;19;20022;-70
2022/09/28 10:34:54;;;;;;;1.25;0.70;;;;;;;14.51;100.00;99903.09;7372533;19;20584;-70
2022/09/28 10:37:23;;;;;;;1.92;1.00;;;;;;;14.39;100.00;99910.28;7373668;19;20025;-70
2022/09/28 10:39:55;;;;;;;1.17;0.85;;;;;;;14.40;100.00;99906.75;7372400;19;20026;-70
2022/09/28 10:42:29;;;;;;;1.77;1.15;;;;;;;14.47;100.00;99904.91;7374755;19;20276;-70
2022/09/28 10:45:05;;;;;;;2.58;1.13;;;;;;;14.48;100.00;99911.03;7375295;19;20007;-70
2022/09/28 10:47:37;;;;;;;1.63;1.10;;;;;;;14.52;100.00;99910.09;7372808;19;20102;-69
2022/09/28 10:50:21;;;;;;;5.10;1.20;;;;;;;14.43;100.00;99911.13;7379578;19;20022;-70
2022/09/28 10:52:51;;;;;;;4.28;1.30;;;;;;;14.65;100.00;99912.47;7380241;19;20018;-71
2022/09/28 10:55:31;;;;;;;1.38;1.05;;;;;;;14.84;100.00;99906.84;7383888;19;20029;-69
2022/09/28 10:58:01;;;;;;;1.92;1.17;;;;;;;14.72;100.00;99903.53;7382633;19;20007;-70
2022/09/28 11:00:39;;;;;;;4.70;1.70;;;;;;;15.27;100.00;99904.22;7382428;19;20029;-69
2022/09/28 11:03:20;;;;;;;4.57;1.60;;;;;;;15.27;100.00;99901.59;7382489;19;20042;-69
2022/09/28 11:06:02;;;;;;;1.33;1.20;;;;;;;15.62;100.00;99898.19;7380235;19;20018;-70
2022/09/28 11:08:37;;;;;;;2.55;1.40;;;;;;;15.79;100.00;99893.41;7382793;19;20025;-70
2022/09/28 11:11:10;;;;;;;3.50;1.45;;;;;;;15.64;100.00;99893.75;7377355;19;20443;-71
2022/09/28 11:13:48;;;;;;;3.63;1.70;;;;;;;15.83;100.00;99897.72;7376650;19;20429;-71
2022/09/28 11:16:27;;;;;;;1.40;1.30;;;;;;;15.83;100.00;99896.84;7375466;19;20371;-71
2022/09/28 11:18:58;;;;;;;2.67;1.63;;;;;;;16.15;100.00;99888.13;7379948;19;20010;-70
2022/09/28 11:21:31;;;;;;;3.65;1.40;;;;;;;16.25;100.00;99890.53;7380329;19;20014;-70
2022/09/28 11:24:05;;;;;;;1.95;1.20;;;;;;;16.44;100.00;99895.34;7378962;19;20074;-70
2022/09/28 11:26:44;;;;;;;1.58;1.27;;;;;;;16.59;100.00;99894.94;7382058;19;20063;-70
2022/09/28 11:29:23;;;;;;;2.30;1.30;;;;;;;16.65;100.00;99890.38;7381590;19;20043;-69
2022/09/28 11:32:02;;;;;;;0.88;0.88;;;;;;;16.81;100.00;99896.13;7381988;19;20015;-71
2022/09/28 11:34:36;;;;;;;1.38;1.10;;;;;;;16.53;100.00;99887.16;7382089;19;20017;-71
2022/09/28 11:37:40;;;;;;;;;;;;;;;16.73;100.00;99892.81;7383426;19;20046;-70
2022/09/28 11:40:24;;;;;;;2.25;1.20;;;;;;;17.00;100.00;99885.88;7375137;19;20303;-69
2022/09/28 11:43:10;;;;;;;3.30;1.45;;;;;;;17.07;100.00;99887.44;7376398;19;20629;-69
2022/09/28 11:45:55;;;;;;;1.75;1.00;;;;;;;16.59;100.00;99889.66;7378546;19;20015;-69
2022/09/28 11:48:34;;;;;;;3.42;1.15;;;;;;;16.80;100.00;99889.09;7378844;19;20039;-69
2022/09/28 11:51:09;;;;;;;0.57;0.55;;;;;;;17.18;100.00;99890.66;7375448;19;20544;-69
2022/09/28 11:53:45;;;;;;;1.17;0.70;;;;;;;17.48;100.00;99888.03;7376218;19;20014;-69
2022/09/28 11:56:26;;;;;;;1.05;0.80;;;;;;;17.13;100.00;99887.28;7376941;19;20055;-69
2022/09/28 11:59:01;;;;;;;0.80;0.80;;;;;;;17.49;100.00;99895.94;7375608;19;20028;-68
2022/09/28 12:01:37;;;;;;;0.85;0.68;;;;;;;17.44;100.00;99889.03;7375064;19;20049;-68
2022/09/28 12:04:13;;;;;;;1.85;0.95;;;;;;;17.15;100.00;99890.75;7371652;19;20051;-69
2022/09/28 12:06:49;;;;;;;1.38;0.98;;;;;;;16.86;100.00;99894.22;7379539;19;20022;-68
2022/09/28 12:09:24;;;;;;;3.28;0.95;;;;;;;16.84;100.00;99889.88;7376158;19;20018;-67
2022/09/28 12:12:00;;;;;;;1.25;1.15;;;;;;;16.20;100.00;99897.69;7373252;19;20119;-67
2022/09/28 12:14:34;;;;;;;2.35;1.10;;;;;;;16.11;100.00;99903.22;7375375;19;20025;-74
2022/09/28 12:17:12;;;;;;;1.17;1.08;;;;;;;15.82;100.00;99903.03;7378836;19;20498;-67